Time;durP1;ratioP1;P1;durP2;ratioP2;P2;SDS_P1;SDS_P2;PMS_P1;PMS_P2;Temp;Humidity;BMP_temperature;BMP_pressure;BME280_temperature;BME280_humidity;BME280_pressure;Samples;Min_cycle;Max_cycle;Signal;HPM_P1;HPM_P2
2023/02/22 00:00:42;;;;;;;31.95;16.77;;;7.90;99.90;;;;;;5011988;28;20038;-73
2023/02/22 00:03:09;;;;;;;33.33;17.88;;;7.90;99.90;;;;;;5012077;28;20477;-72
2023/02/22 00:05:38;;;;;;;40.08;20.13;;;7.90;99.90;;;;;;5012854;28;20487;-74
2023/02/22 00:08:10;;;;;;;41.08;24.15;;;7.90;99.90;;;;;;5012595;28;20061;-73
2023/02/22 00:10:37;;;;;;;45.42;23.10;;;7.90;99.90;;;;;;4982751;28;20041;-72
2023/02/22 00:13:05;;;;;;;35.08;19.65;;;7.80;99.90;;;;;;4996324;28;20481;-75
2023/02/22 00:15:32;;;;;;;39.50;20.92;;;7.80;99.90;;;;;;4983948;28;20052;-73
2023/02/22 00:17:59;;;;;;;37.40;20.33;;;7.80;99.90;;;;;;4994856;28;20504;-73
2023/02/22 00:20:25;;;;;;;44.67;23.52;;;7.80;99.90;;;;;;5013536;28;20029;-72
2023/02/22 00:22:53;;;;;;;49.80;25.83;;;7.80;99.90;;;;;;5014722;28;20029;-75
2023/02/22 00:25:23;;;;;;;39.50;20.50;;;7.80;99.90;;;;;;5013977;28;20165;-73
2023/02/22 00:27:51;;;;;;;43.28;22.45;;;7.80;99.90;;;;;;5012048;28;20041;-72
2023/02/22 00:30:26;;;;;;;41.17;21.10;;;7.80;99.90;;;;;;5013222;28;20048;-73
2023/02/22 00:32:55;;;;;;;47.95;23.70;;;7.80;99.90;;;;;;4996192;28;20508;-74
2023/02/22 00:35:24;;;;;;;42.40;22.63;;;7.80;99.90;;;;;;5000443;28;20032;-75
2023/02/22 00:37:55;;;;;;;45.90;23.70;;;7.80;99.90;;;;;;5010571;28;20590;-75
2023/02/22 00:40:25;;;;;;;42.20;22.58;;;7.80;99.90;;;;;;5013901;28;20052;-72
2023/02/22 00:42:52;;;;;;;42.63;21.00;;;7.70;99.90;;;;;;5013592;28;20416;-72
2023/02/22 00:45:21;;;;;;;32.42;18.70;;;7.70;99.90;;;;;;5013415;28;20037;-73
2023/02/22 00:47:48;;;;;;;47.75;24.27;;;7.80;99.90;;;;;;5008166;28;20041;-73
2023/02/22 00:50:16;;;;;;;42.08;21.77;;;7.70;99.90;;;;;;5012042;28;20448;-74
2023/02/22 00:52:43;;;;;;;39.28;20.58;;;7.70;99.90;;;;;;5011879;28;20045;-73
2023/02/22 00:55:14;;;;;;;48.53;24.27;;;7.70;99.90;;;;;;5029612;28;20033;-74
2023/02/22 00:57:40;;;;;;;40.58;19.55;;;7.70;99.90;;;;;;5012887;28;20415;-74
2023/02/22 01:00:12;;;;;;;44.60;21.88;;;7.70;99.90;;;;;;5013658;28;20377;-74
2023/02/22 01:02:40;;;;;;;42.08;21.55;;;7.70;99.90;;;;;;5025982;28;20041;-72
2023/02/22 01:05:08;;;;;;;39.13;20.05;;;7.60;99.90;;;;;;5013780;28;20449;-72
2023/02/22 01:07:34;;;;;;;41.53;21.15;;;7.60;99.90;;;;;;5012609;28;20029;-75
2023/02/22 01:10:01;;;;;;;34.58;19.15;;;7.60;99.90;;;;;;5013109;28;20029;-73
2023/02/22 01:12:28;;;;;;;33.03;16.92;;;7.60;99.90;;;;;;5012201;28;20041;-72
2023/02/22 01:14:55;;;;;;;36.83;18.98;;;7.60;99.90;;;;;;4995726;28;20049;-74
2023/02/22 01:17:24;;;;;;;33.63;17.92;;;7.60;99.90;;;;;;5013201;28;20410;-73
2023/02/22 01:19:51;;;;;;;29.80;16.25;;;7.60;99.90;;;;;;4994684;28;20049;-72
2023/02/22 01:22:18;;;;;;;37.65;20.08;;;7.60;99.90;;;;;;5014973;28;20041;-72
2023/02/22 01:24:45;;;;;;;38.17;21.38;;;7.60;99.90;;;;;;5012112;28;20029;-75
2023/02/22 01:27:11;;;;;;;40.63;21.92;;;7.60;99.90;;;;;;5014179;28;20462;-73
2023/02/22 01:29:38;;;;;;;37.53;20.83;;;7.60;99.90;;;;;;5009004;28;20041;-71
2023/02/22 01:32:06;;;;;;;39.53;23.27;;;7.60;99.90;;;;;;5010240;28;20042;-75
2023/02/22 01:34:34;;;;;;;41.92;22.55;;;7.60;99.90;;;;;;4993820;28;20108;-73
2023/02/22 01:37:00;;;;;;;40.55;23.15;;;7.60;99.90;;;;;;5011538;28;20040;-73
2023/02/22 01:39:27;;;;;;;44.00;25.80;;;7.60;99.90;;;;;;4993951;28;20420;-74
2023/02/22 01:41:53;;;;;;;46.33;25.05;;;7.60;99.90;;;;;;4996784;28;20025;-73
2023/02/22 01:44:33;;;;;;;40.30;23.23;;;7.60;99.90;;;;;;5010070;28;20037;-73
2023/02/22 01:47:02;;;;;;;36.28;21.73;;;7.60;99.90;;;;;;5009351;28;21134;-72
2023/02/22 01:49:41;;;;;;;35.92;19.50;;;7.50;99.90;;;;;;5024401;28;20049;-72
2023/02/22 01:52:15;;;;;;;39.25;22.17;;;7.60;99.90;;;;;;5022575;28;20544;-73
2023/02/22 01:54:46;;;;;;;42.33;23.50;;;7.60;99.90;;;;;;5011794;28;20045;-73
2023/02/22 01:57:28;;;;;;;43.20;25.42;;;7.50;99.90;;;;;;5006365;28;20044;-73
2023/02/22 02:00:08;;;;;;;46.30;25.92;;;7.50;99.90;;;;;;5008993;28;20048;-74
2023/02/22 02:02:46;;;;;;;46.95;25.20;;;7.50;99.90;;;;;;5006408;28;20042;-72
2023/02/22 02:05:13;;;;;;;36.28;21.42;;;7.40;99.90;;;;;;5009934;28;20041;-75
2023/02/22 02:07:40;;;;;;;42.05;23.23;;;7.40;99.90;;;;;;4991046;28;20025;-74
2023/02/22 02:10:14;;;;;;;42.22;23.75;;;7.40;99.90;;;;;;4992357;28;20483;-75
2023/02/22 02:12:47;;;;;;;38.92;19.98;;;7.40;99.90;;;;;;5025620;28;20048;-73
2023/02/22 02:15:29;;;;;;;47.92;25.23;;;7.40;99.90;;;;;;5009657;28;20056;-73
2023/02/22 02:17:59;;;;;;;47.40;23.23;;;7.30;99.90;;;;;;5011157;28;20037;-73
2023/02/22 02:20:38;;;;;;;44.28;22.58;;;7.30;99.90;;;;;;5010882;28;20038;-74
2023/02/22 02:23:13;;;;;;;36.17;18.88;;;7.30;99.90;;;;;;5009368;28;20034;-75
2023/02/22 02:25:42;;;;;;;37.58;19.85;;;7.30;99.90;;;;;;5025745;28;20033;-72
2023/02/22 02:28:40;;;;;;;40.67;20.38;;;7.30;99.90;;;;;;5025164;28;20048;-73
2023/02/22 02:31:31;;;;;;;41.65;20.98;;;7.30;99.90;;;;;;5009982;28;20385;-72
2023/02/22 02:34:09;;;;;;;40.63;20.50;;;7.30;99.90;;;;;;5008528;28;20160;-73
2023/02/22 02:36:46;;;;;;;42.33;21.23;;;7.30;99.90;;;;;;4996701;28;21011;-73
2023/02/22 02:39:18;;;;;;;41.03;20.58;;;7.20;99.90;;;;;;5007101;28;20487;-73
2023/02/22 02:41:49;;;;;;;44.72;22.45;;;7.20;99.90;;;;;;5013529;28;20037;-73
2023/02/22 02:44:45;;;;;;;45.17;23.25;;;7.20;99.90;;;;;;5009352;28;20030;-72
2023/02/22 02:47:18;;;;;;;41.13;21.30;;;7.20;99.90;;;;;;5011948;28;20049;-73
2023/02/22 02:49:52;;;;;;;49.88;24.08;;;7.20;99.90;;;;;;5011096;28;20495;-72
2023/02/22 02:52:22;;;;;;;58.22;26.65;;;7.10;99.90;;;;;;5009462;28;20041;-73
2023/02/22 02:54:50;;;;;;;59.13;28.77;;;7.10;99.90;;;;;;5013370;28;20041;-73
2023/02/22 02:57:16;;;;;;;53.58;26.83;;;7.10;99.90;;;;;;5011252;28;20040;-74
2023/02/22 02:59:43;;;;;;;51.40;25.05;;;7.00;99.90;;;;;;4977470;28;20465;-73
2023/02/22 03:02:17;;;;;;;48.72;24.63;;;7.10;99.90;;;;;;5008440;28;20038;-74
2023/02/22 03:05:06;;;;;;;48.55;22.67;;;7.00;99.90;;;;;;4994474;28;20041;-72
2023/02/22 03:07:48;;;;;;;45.33;22.73;;;7.00;99.90;;;;;;4993917;28;20022;-74
2023/02/22 03:10:50;;;;;;;45.47;22.30;;;7.10;99.90;;;;;;4994829;28;20045;-74
2023/02/22 03:13:23;;;;;;;;;;;7.10;99.90;;;;;;4975477;28;20049;-72
2023/02/22 03:16:06;;;;;;;55.97;26.45;;;7.00;99.90;;;;;;5012592;28;20609;-73
2023/02/22 03:18:51;;;;;;;53.58;25.15;;;7.00;99.90;;;;;;5011493;28;20048;-75
2023/02/22 03:21:56;;;;;;;50.50;24.45;;;7.00;99.90;;;;;;5013146;28;20041;-72
2023/02/22 03:24:44;;;;;;;52.28;25.20;;;7.00;99.90;;;;;;5007671;28;20491;-72
2023/02/22 03:27:26;;;;;;;55.50;26.65;;;7.10;99.90;;;;;;5001173;28;20033;-72
2023/02/22 03:30:00;;;;;;;52.13;24.35;;;7.10;99.90;;;;;;4982711;28;20029;-73
2023/02/22 03:32:33;;;;;;;46.53;23.77;;;7.10;99.90;;;;;;5009548;28;20045;-73
2023/02/22 03:35:11;;;;;;;48.90;24.67;;;7.10;99.90;;;;;;5026431;28;20037;-73
2023/02/22 03:37:45;;;;;;;42.85;22.10;;;7.00;99.90;;;;;;5013114;28;20041;-73
2023/02/22 03:40:24;;;;;;;47.38;23.23;;;7.00;99.90;;;;;;5016339;28;20509;-75
2023/02/22 03:43:00;;;;;;;48.33;24.75;;;7.00;99.90;;;;;;4995976;28;20496;-72
2023/02/22 03:45:29;;;;;;;46.50;24.52;;;7.00;99.90;;;;;;5013734;28;20048;-73
2023/02/22 03:48:18;;;;;;;42.72;21.48;;;7.00;99.90;;;;;;5011106;28;20037;-73
2023/02/22 03:50:45;;;;;;;47.53;23.75;;;6.90;99.90;;;;;;4997426;28;20377;-72
2023/02/22 03:53:11;;;;;;;46.40;23.05;;;6.90;99.90;;;;;;4995447;28;20087;-73
2023/02/22 03:55:40;;;;;;;45.40;23.15;;;6.80;99.90;;;;;;5012865;28;20052;-72
2023/02/22 03:58:11;;;;;;;50.35;24.40;;;6.80;99.90;;;;;;5012116;28;20064;-71
2023/02/22 04:00:43;;;;;;;42.37;21.60;;;6.80;99.90;;;;;;4983343;28;20040;-73
2023/02/22 04:03:10;;;;;;;49.47;23.83;;;6.80;99.90;;;;;;5011701;28;20030;-72
2023/02/22 04:05:37;;;;;;;50.75;24.52;;;6.80;99.90;;;;;;5012198;28;20044;-72
2023/02/22 04:08:05;;;;;;;48.22;23.40;;;6.70;99.90;;;;;;5029418;28;20033;-72
2023/02/22 04:10:32;;;;;;;48.65;24.65;;;6.80;99.90;;;;;;5027206;28;20033;-72
2023/02/22 04:12:59;;;;;;;54.28;26.33;;;6.80;99.90;;;;;;4995472;28;20045;-73
2023/02/22 04:15:26;;;;;;;48.13;25.75;;;6.70;99.90;;;;;;5016644;28;20029;-72
2023/02/22 04:17:56;;;;;;;54.05;25.55;;;6.70;99.90;;;;;;5012950;28;20108;-73
2023/02/22 04:20:24;;;;;;;52.38;23.70;;;6.70;99.90;;;;;;5011191;28;20025;-74
2023/02/22 04:23:05;;;;;;;48.47;23.83;;;6.70;99.90;;;;;;5012305;28;20018;-73
2023/02/22 04:25:32;;;;;;;54.92;26.30;;;6.60;99.90;;;;;;5015499;28;20448;-73
2023/02/22 04:28:10;;;;;;;54.95;27.40;;;6.70;99.90;;;;;;4999867;28;20101;-74
2023/02/22 04:30:42;;;;;;;;;;;6.60;99.90;;;;;;4998175;28;20468;-72
2023/02/22 04:33:13;;;;;;;50.63;23.75;;;6.60;99.90;;;;;;5009009;28;20390;-75
2023/02/22 04:35:39;;;;;;;49.55;23.30;;;6.60;99.90;;;;;;5028034;28;20033;-76
2023/02/22 04:38:08;;;;;;;49.38;25.00;;;6.60;99.90;;;;;;4998267;28;20033;-74
2023/02/22 04:40:34;;;;;;;50.00;25.95;;;6.60;99.90;;;;;;4995944;28;20036;-72
2023/02/22 04:43:01;;;;;;;48.17;24.25;;;6.60;99.90;;;;;;5011000;28;20107;-73
2023/02/22 04:45:28;;;;;;;51.70;25.90;;;6.70;99.90;;;;;;5012477;28;20041;-73
2023/02/22 04:47:55;;;;;;;48.75;24.13;;;6.70;99.90;;;;;;4995196;28;20038;-73
2023/02/22 04:50:22;;;;;;;52.58;24.92;;;6.70;99.90;;;;;;4995292;28;20036;-72
2023/02/22 04:52:48;;;;;;;51.38;25.48;;;6.70;99.90;;;;;;5012103;28;20041;-72
2023/02/22 04:55:16;;;;;;;53.92;27.25;;;6.70;99.90;;;;;;5014170;28;20041;-72
2023/02/22 04:57:42;;;;;;;56.03;26.05;;;6.70;99.90;;;;;;4995440;28;20041;-75
2023/02/22 05:00:09;;;;;;;65.32;31.30;;;6.70;99.90;;;;;;4997687;28;20029;-72
2023/02/22 05:02:39;;;;;;;68.45;31.20;;;6.70;99.90;;;;;;4995815;28;20396;-72
2023/02/22 05:05:06;;;;;;;67.25;30.95;;;6.60;99.90;;;;;;5014279;28;20040;-74
2023/02/22 05:07:32;;;;;;;68.95;32.28;;;6.50;99.90;;;;;;5016068;28;20373;-74
2023/02/22 05:10:01;;;;;;;65.05;32.42;;;6.50;99.90;;;;;;5013786;28;20373;-72
2023/02/22 05:12:28;;;;;;;71.57;31.73;;;6.40;99.90;;;;;;5009179;28;20045;-73
2023/02/22 05:14:54;;;;;;;73.45;32.78;;;6.40;99.90;;;;;;5008886;28;20511;-73
2023/02/22 05:17:20;;;;;;;62.13;29.58;;;6.40;99.90;;;;;;5010648;28;20040;-73
2023/02/22 05:19:46;;;;;;;54.70;25.40;;;6.40;99.90;;;;;;4995884;28;20044;-72
2023/02/22 05:22:13;;;;;;;68.30;30.08;;;6.40;99.90;;;;;;4995109;28;20389;-73
2023/02/22 05:24:39;;;;;;;65.93;30.75;;;6.40;99.90;;;;;;5012823;28;20068;-73
2023/02/22 05:27:05;;;;;;;80.53;37.80;;;6.40;99.90;;;;;;5012334;28;20048;-73
2023/02/22 05:29:31;;;;;;;71.95;33.13;;;6.40;99.90;;;;;;5010658;28;20037;-72
2023/02/22 05:31:58;;;;;;;65.50;29.80;;;6.30;99.90;;;;;;5011811;28;20399;-75
2023/02/22 05:34:24;;;;;;;71.80;33.10;;;6.30;99.90;;;;;;5012352;28;20026;-74
2023/02/22 05:36:50;;;;;;;78.05;34.90;;;6.40;99.90;;;;;;5014181;28;20033;-72
2023/02/22 05:39:17;;;;;;;77.10;35.42;;;6.30;99.90;;;;;;5011538;28;20041;-74
2023/02/22 05:41:43;;;;;;;93.93;42.45;;;6.30;99.90;;;;;;5013157;28;20441;-75
2023/02/22 05:44:09;;;;;;;99.70;45.20;;;6.30;99.90;;;;;;5010014;28;20056;-72
2023/02/22 05:46:36;;;;;;;99.38;44.22;;;6.20;99.90;;;;;;5014243;28;20508;-72
2023/02/22 05:49:02;;;;;;;108.93;48.75;;;6.20;99.90;;;;;;5012709;28;20034;-73
2023/02/22 05:51:29;;;;;;;96.63;42.13;;;6.20;99.90;;;;;;5012180;28;20109;-72
2023/02/22 05:53:55;;;;;;;107.15;47.25;;;6.20;99.90;;;;;;5026423;28;20037;-74
2023/02/22 05:56:27;;;;;;;87.53;40.13;;;6.10;99.90;;;;;;5011967;28;20052;-72
2023/02/22 05:58:54;;;;;;;73.13;33.88;;;6.10;99.90;;;;;;5010825;28;20028;-73
2023/02/22 06:01:20;;;;;;;88.68;38.33;;;6.20;99.90;;;;;;5010380;28;20044;-74
2023/02/22 06:03:50;;;;;;;81.07;35.60;;;6.20;99.90;;;;;;5011334;28;20040;-72
2023/02/22 06:06:19;;;;;;;90.68;39.47;;;6.20;99.90;;;;;;5013841;28;20474;-72
2023/02/22 06:08:45;;;;;;;86.32;37.88;;;6.20;99.90;;;;;;5011739;28;20047;-74
2023/02/22 06:11:12;;;;;;;90.35;37.83;;;6.20;99.90;;;;;;5011669;28;20800;-72
2023/02/22 06:13:39;;;;;;;84.70;35.70;;;6.20;99.90;;;;;;4979272;28;20044;-73
2023/02/22 06:16:07;;;;;;;81.95;34.15;;;6.20;99.90;;;;;;5026033;28;20516;-75
2023/02/22 06:18:33;;;;;;;82.88;33.67;;;6.20;99.90;;;;;;4992804;28;20025;-72
2023/02/22 06:21:00;;;;;;;86.45;32.78;;;6.20;99.90;;;;;;5011643;28;20041;-72
2023/02/22 06:23:26;;;;;;;126.97;37.75;;;6.10;99.90;;;;;;5012825;28;20084;-76
2023/02/22 06:25:52;;;;;;;113.68;35.60;;;6.10;99.90;;;;;;5014476;28;20033;-73
2023/02/22 06:28:19;;;;;;;239.32;42.70;;;6.10;99.90;;;;;;5014006;28;20032;-76
2023/02/22 06:30:45;;;;;;;81.38;32.95;;;6.10;99.90;;;;;;5010167;28;20029;-72
2023/02/22 06:33:11;;;;;;;77.40;30.27;;;6.00;99.90;;;;;;5011819;28;20466;-73
2023/02/22 06:35:38;;;;;;;97.95;29.60;;;6.10;99.90;;;;;;5006841;28;20048;-73
2023/02/22 06:38:05;;;;;;;126.35;34.92;;;6.10;99.90;;;;;;5007497;28;20044;-75
2023/02/22 06:40:31;;;;;;;87.90;32.10;;;6.00;99.90;;;;;;5012175;28;20056;-75
2023/02/22 06:42:58;;;;;;;65.55;27.58;;;6.00;99.90;;;;;;5011634;28;20040;-74
2023/02/22 06:45:25;;;;;;;144.93;28.30;;;6.00;99.90;;;;;;5013130;28;20065;-76
2023/02/22 06:47:51;;;;;;;108.70;34.50;;;6.10;99.90;;;;;;5013561;28;20041;-73
2023/02/22 06:50:27;;;;;;;83.65;31.10;;;6.10;99.90;;;;;;5016600;28;20041;-75
2023/02/22 06:52:54;;;;;;;76.30;26.75;;;6.10;99.90;;;;;;5028380;28;20029;-72
2023/02/22 06:55:23;;;;;;;69.45;29.67;;;6.10;99.90;;;;;;5013890;28;20052;-74
2023/02/22 06:57:50;;;;;;;101.65;31.80;;;6.10;99.90;;;;;;4997306;28;20037;-73
2023/02/22 07:00:19;;;;;;;73.95;32.00;;;6.10;99.90;;;;;;5014963;28;20044;-74
2023/02/22 07:02:47;;;;;;;149.38;35.80;;;6.00;99.90;;;;;;5023148;28;20488;-73
2023/02/22 07:05:16;;;;;;;121.82;31.70;;;6.10;99.90;;;;;;5016803;28;20625;-76
2023/02/22 07:07:42;;;;;;;79.22;28.80;;;6.10;99.90;;;;;;4998256;28;20404;-73
2023/02/22 07:10:25;;;;;;;85.97;31.38;;;6.10;99.90;;;;;;5010713;28;20050;-76
2023/02/22 07:12:52;;;;;;;99.60;28.77;;;6.10;99.90;;;;;;4994517;28;20041;-73
2023/02/22 07:15:20;;;;;;;127.10;31.50;;;6.10;99.90;;;;;;5010978;28;20037;-72
2023/02/22 07:17:47;;;;;;;88.97;27.95;;;6.10;99.90;;;;;;5008812;28;20509;-77
2023/02/22 07:20:13;;;;;;;77.20;28.50;;;6.20;99.90;;;;;;5013931;28;20076;-81
2023/02/22 07:22:40;;;;;;;75.53;27.98;;;6.20;99.90;;;;;;4993964;28;20049;-77
2023/02/22 07:25:11;;;;;;;100.72;31.10;;;6.20;99.90;;;;;;5011692;28;20037;-82
2023/02/22 07:27:40;;;;;;;78.10;26.92;;;6.20;99.90;;;;;;5022676;28;20435;-80
2023/02/22 07:30:19;;;;;;;80.18;26.08;;;6.20;99.90;;;;;;5014417;28;20033;-78
2023/02/22 07:32:46;;;;;;;75.75;26.13;;;6.30;99.90;;;;;;5007556;28;20096;-73
2023/02/22 07:35:15;;;;;;;69.07;27.45;;;6.30;99.90;;;;;;4997471;28;20041;-74
2023/02/22 07:37:42;;;;;;;153.80;31.45;;;6.40;99.90;;;;;;5011586;28;20048;-73
2023/02/22 07:40:09;;;;;;;108.15;32.20;;;6.40;99.90;;;;;;5012754;28;20400;-74
2023/02/22 07:43:01;;;;;;;88.10;28.83;;;6.40;99.90;;;;;;4994925;28;20053;-75
2023/02/22 07:45:30;;;;;;;144.85;37.38;;;6.40;99.90;;;;;;5016338;28;20053;-74
2023/02/22 07:47:57;;;;;;;86.15;30.60;;;6.40;99.90;;;;;;5011780;28;20493;-73
2023/02/22 07:50:25;;;;;;;68.85;26.40;;;6.50;99.90;;;;;;5013144;28;20041;-74
2023/02/22 07:52:54;;;;;;;93.13;30.25;;;6.50;99.90;;;;;;5007019;28;20037;-73
2023/02/22 07:55:24;;;;;;;77.55;30.13;;;6.50;99.90;;;;;;5024031;28;20041;-74
2023/02/22 07:57:55;;;;;;;95.57;30.33;;;6.50;99.90;;;;;;5011698;28;20039;-73
2023/02/22 08:00:28;;;;;;;138.32;32.40;;;6.50;99.90;;;;;;5015722;28;21606;-74
2023/02/22 08:02:55;;;;;;;130.68;30.92;;;6.60;99.90;;;;;;5026748;28;20040;-73
2023/02/22 08:05:23;;;;;;;75.80;27.52;;;6.60;99.90;;;;;;4985735;28;20496;-74
2023/02/22 08:07:49;;;;;;;121.45;32.40;;;6.60;99.90;;;;;;5026986;28;20033;-73
2023/02/22 08:10:18;;;;;;;76.05;27.30;;;6.60;99.90;;;;;;5014730;28;20055;-73
2023/02/22 08:12:45;;;;;;;73.30;24.98;;;6.70;99.90;;;;;;5012805;28;20033;-72
2023/02/22 08:15:17;;;;;;;98.18;28.10;;;6.70;99.90;;;;;;5017409;28;20511;-73
2023/02/22 08:17:44;;;;;;;140.93;37.20;;;6.80;99.90;;;;;;5013165;28;21670;-74
2023/02/22 08:20:10;;;;;;;63.38;25.13;;;6.80;99.90;;;;;;5014060;28;20543;-74
2023/02/22 08:22:37;;;;;;;76.05;24.83;;;6.80;99.90;;;;;;5011986;28;20026;-75
2023/02/22 08:25:03;;;;;;;104.53;31.92;;;6.90;99.90;;;;;;4984935;28;20029;-73
2023/02/22 08:27:30;;;;;;;94.03;30.95;;;6.90;99.90;;;;;;5008162;28;20319;-76
2023/02/22 08:29:56;;;;;;;128.75;31.48;;;6.90;99.90;;;;;;5013185;28;20527;-73
2023/02/22 08:32:22;;;;;;;89.70;30.02;;;7.00;99.90;;;;;;5013697;28;20400;-73
2023/02/22 08:34:50;;;;;;;66.82;26.08;;;7.00;99.90;;;;;;5013139;28;20041;-73
2023/02/22 08:37:17;;;;;;;74.50;26.40;;;7.10;99.90;;;;;;5012461;28;20041;-74
2023/02/22 08:39:44;;;;;;;78.45;30.05;;;7.10;99.90;;;;;;5007231;28;20045;-73
2023/02/22 08:42:10;;;;;;;71.40;29.20;;;7.10;99.90;;;;;;5007340;28;20037;-73
2023/02/22 08:44:38;;;;;;;66.57;25.10;;;7.20;99.90;;;;;;4992104;28;20040;-73
2023/02/22 08:47:05;;;;;;;74.70;28.77;;;7.20;99.90;;;;;;4992835;28;20053;-74
2023/02/22 08:49:32;;;;;;;77.43;30.60;;;7.20;99.90;;;;;;5006390;28;20040;-74
2023/02/22 08:51:58;;;;;;;82.82;30.92;;;7.20;99.90;;;;;;5012714;28;20044;-73
2023/02/22 08:54:24;;;;;;;80.13;29.02;;;7.20;99.90;;;;;;4992826;28;20799;-73
2023/02/22 08:56:51;;;;;;;75.65;28.00;;;7.20;99.90;;;;;;5011930;28;20049;-72
2023/02/22 08:59:17;;;;;;;59.63;23.30;;;7.30;99.90;;;;;;5010480;28;20037;-73
2023/02/22 09:01:43;;;;;;;69.82;26.98;;;7.40;99.90;;;;;;5025751;28;20033;-74
2023/02/22 09:04:10;;;;;;;85.95;30.58;;;7.50;99.90;;;;;;4993845;28;20030;-73
2023/02/22 09:06:38;;;;;;;68.25;27.52;;;7.50;99.90;;;;;;5013714;28;20092;-73
2023/02/22 09:09:05;;;;;;;72.88;27.50;;;7.60;99.90;;;;;;5010308;28;20037;-73
2023/02/22 09:11:31;;;;;;;69.65;27.52;;;7.60;99.90;;;;;;5011632;28;20052;-73
2023/02/22 09:13:57;;;;;;;65.82;25.52;;;7.60;99.90;;;;;;5009928;28;20049;-75
2023/02/22 09:16:24;;;;;;;64.05;26.35;;;7.70;99.90;;;;;;5011753;28;20041;-73
2023/02/22 09:18:50;;;;;;;74.30;27.48;;;7.70;99.90;;;;;;5007725;28;20052;-73
2023/02/22 09:21:16;;;;;;;67.63;28.17;;;7.80;99.90;;;;;;5011089;28;20405;-75
2023/02/22 09:23:46;;;;;;;71.20;29.73;;;7.80;99.90;;;;;;5011767;28;20491;-73
2023/02/22 09:26:14;;;;;;;74.60;32.13;;;7.90;99.90;;;;;;4982106;28;20040;-74
2023/02/22 09:28:41;;;;;;;72.18;29.52;;;7.90;99.90;;;;;;4996274;28;20109;-73
2023/02/22 09:31:07;;;;;;;63.70;26.25;;;7.90;99.90;;;;;;5011622;28;20436;-74
2023/02/22 09:33:34;;;;;;;56.90;24.77;;;8.00;99.90;;;;;;5011943;28;20026;-76
2023/02/22 09:36:01;;;;;;;66.57;26.58;;;8.10;99.90;;;;;;5014053;28;20744;-73
2023/02/22 09:38:31;;;;;;;71.80;30.58;;;8.20;99.90;;;;;;5010629;28;20030;-79
2023/02/22 09:40:58;;;;;;;78.78;33.33;;;8.30;99.90;;;;;;5014312;28;20037;-78
2023/02/22 09:43:29;;;;;;;69.57;31.15;;;8.30;99.90;;;;;;4994104;28;20038;-76
2023/02/22 09:46:24;;;;;;;83.65;38.55;;;8.20;99.90;;;;;;5010970;28;20057;-79
2023/02/22 09:48:56;;;;;;;62.40;26.98;;;8.30;99.90;;;;;;4992266;28;20041;-81
2023/02/22 09:51:27;;;;;;;65.45;28.15;;;8.40;99.90;;;;;;5008098;28;20057;-78
2023/02/22 09:53:58;;;;;;;72.13;28.95;;;8.50;99.90;;;;;;4992711;28;20050;-78
2023/02/22 09:56:26;;;;;;;78.15;32.30;;;8.60;99.90;;;;;;5011285;28;20041;-74
2023/02/22 09:58:59;;;;;;;70.15;29.00;;;8.70;99.90;;;;;;5005488;28;20040;-76
2023/02/22 10:01:42;;;;;;;68.78;29.52;;;8.80;99.90;;;;;;5010887;28;20926;-74
2023/02/22 10:04:29;;;;;;;80.88;33.70;;;8.90;99.90;;;;;;5008581;28;20045;-73
2023/02/22 10:07:10;;;;;;;69.65;30.33;;;9.00;99.90;;;;;;5012028;28;20033;-76
2023/02/22 10:09:43;;;;;;;79.03;33.85;;;9.10;99.90;;;;;;5011371;28;20029;-73
2023/02/22 10:12:10;;;;;;;;;;;9.30;99.90;;;;;;5007789;28;20041;-73
2023/02/22 10:14:43;;;;;;;66.15;27.42;;;9.30;99.90;;;;;;5007343;28;20373;-73
2023/02/22 10:17:36;;;;;;;65.63;29.20;;;9.40;99.90;;;;;;5010353;28;20049;-74
2023/02/22 10:20:32;;;;;;;70.32;30.05;;;9.40;99.90;;;;;;5013590;28;20487;-72
2023/02/22 10:23:15;;;;;;;64.38;30.20;;;9.40;99.90;;;;;;5011451;28;20591;-73
2023/02/22 10:25:44;;;;;;;73.80;32.13;;;9.40;99.90;;;;;;4998066;28;20038;-73
2023/02/22 10:28:19;;;;;;;75.45;34.55;;;9.50;99.90;;;;;;5010625;28;20029;-73
2023/02/22 10:30:53;;;;;;;70.40;32.75;;;9.60;99.90;;;;;;5013477;28;20034;-74
2023/02/22 10:33:26;;;;;;;80.90;39.38;;;9.70;99.90;;;;;;5007985;28;20052;-73
2023/02/22 10:35:54;;;;;;;75.85;37.55;;;9.80;99.90;;;;;;4999071;28;20044;-73
2023/02/22 10:38:25;;;;;;;61.58;30.40;;;10.00;99.90;;;;;;4998240;28;20424;-74
2023/02/22 10:41:07;;;;;;;64.43;32.00;;;10.20;99.90;;;;;;4997738;28;20030;-73
2023/02/22 10:43:35;;;;;;;70.97;34.03;;;10.40;99.90;;;;;;4996593;28;20037;-75
2023/02/22 10:46:05;;;;;;;55.95;30.08;;;10.60;99.90;;;;;;5013308;28;20050;-75
2023/02/22 10:48:36;;;;;;;60.42;32.40;;;10.70;99.90;;;;;;5028841;28;20037;-73
2023/02/22 10:51:05;;;;;;;55.75;31.10;;;10.70;99.90;;;;;;4998912;28;20041;-76
2023/02/22 10:53:32;;;;;;;51.78;28.50;;;10.70;99.90;;;;;;5013385;28;20408;-75
2023/02/22 10:56:15;;;;;;;50.80;28.45;;;10.80;99.90;;;;;;5015126;28;20054;-74
2023/02/22 10:58:52;;;;;;;49.55;27.52;;;10.90;99.90;;;;;;4995210;28;20046;-73
2023/02/22 11:01:31;;;;;;;50.33;27.27;;;11.10;99.90;;;;;;5034107;28;20033;-72
2023/02/22 11:03:59;;;;;;;52.88;27.17;;;11.10;99.90;;;;;;5015550;28;20492;-73
2023/02/22 11:06:26;;;;;;;54.97;30.08;;;11.20;99.90;;;;;;5015609;28;20045;-74
2023/02/22 11:09:09;;;;;;;58.60;31.08;;;11.30;99.90;;;;;;5029813;28;20904;-74
2023/02/22 11:11:37;;;;;;;52.35;29.13;;;11.50;99.90;;;;;;5005757;28;20485;-74
2023/02/22 11:14:05;;;;;;;51.08;27.52;;;11.70;99.90;;;;;;5010691;28;20037;-74
2023/02/22 11:16:41;;;;;;;57.70;30.65;;;11.70;99.90;;;;;;5016198;28;20041;-74
2023/02/22 11:19:28;;;;;;;49.72;26.92;;;11.80;99.90;;;;;;4995343;28;20499;-75
2023/02/22 11:22:24;;;;;;;46.17;26.25;;;11.80;99.90;;;;;;4998140;28;20030;-73
2023/02/22 11:24:59;;;;;;;43.03;23.65;;;11.90;99.90;;;;;;4995974;28;20492;-74
2023/02/22 11:27:39;;;;;;;42.03;24.85;;;12.00;99.90;;;;;;5017355;28;20044;-73
2023/02/22 11:30:23;;;;;;;40.55;23.25;;;12.10;99.90;;;;;;5000658;28;20045;-73
2023/02/22 11:32:54;;;;;;;41.13;23.42;;;12.20;99.90;;;;;;5013809;28;20428;-73
2023/02/22 11:35:27;;;;;;;42.00;25.98;;;12.10;99.90;;;;;;4997159;28;20315;-73
2023/02/22 11:38:15;;;;;;;45.17;26.88;;;12.20;99.90;;;;;;5009486;28;20392;-74
2023/02/22 11:40:43;;;;;;;38.25;23.98;;;12.20;99.90;;;;;;5014028;28;20030;-74
2023/02/22 11:43:18;;;;;;;36.55;22.90;;;12.20;99.90;;;;;;5012747;28;20033;-74
2023/02/22 11:46:04;;;;;;;35.08;22.58;;;12.20;99.90;;;;;;4999753;28;20050;-73
2023/02/22 11:48:34;;;;;;;35.05;22.38;;;12.20;99.90;;;;;;5014079;28;21536;-73
2023/02/22 11:51:34;;;;;;;33.08;21.15;;;12.20;99.90;;;;;;5013828;28;20932;-73
2023/02/22 11:54:28;;;;;;;36.60;22.60;;;12.10;99.90;;;;;;5010954;28;20033;-73
2023/02/22 11:57:08;;;;;;;43.22;27.65;;;12.10;99.90;;;;;;5015005;28;21021;-73
2023/02/22 12:00:14;;;;;;;40.45;24.35;;;12.10;99.90;;;;;;5009423;28;20033;-78
2023/02/22 12:02:59;;;;;;;36.40;22.13;;;12.10;99.90;;;;;;5007328;28;20033;-73
2023/02/22 12:05:58;;;;;;;32.17;19.80;;;12.00;99.90;;;;;;5012184;28;20033;-75
2023/02/22 12:08:31;;;;;;;36.97;21.85;;;12.00;99.90;;;;;;5023274;28;20048;-74
2023/02/22 12:11:02;;;;;;;33.88;21.20;;;12.10;99.90;;;;;;4997037;28;20030;-74
2023/02/22 12:14:08;;;;;;;33.85;21.77;;;12.10;99.90;;;;;;4993946;28;20064;-76
2023/02/22 12:17:06;;;;;;;34.47;22.88;;;12.10;99.90;;;;;;5006894;28;20046;-75
2023/02/22 12:19:42;;;;;;;29.17;18.40;;;12.10;99.90;;;;;;5006847;28;20396;-74
2023/02/22 12:22:36;;;;;;;35.88;22.13;;;12.20;99.90;;;;;;5015012;28;20516;-73
2023/02/22 12:25:24;;;;;;;31.10;21.00;;;12.20;99.90;;;;;;5008171;28;20049;-73
2023/02/22 12:28:04;;;;;;;29.00;19.88;;;12.40;99.90;;;;;;4994770;28;20037;-73
2023/02/22 12:30:37;;;;;;;28.58;19.65;;;12.70;99.90;;;;;;4998316;28;20029;-73
2023/02/22 12:33:26;;;;;;;31.38;20.25;;;13.00;99.90;;;;;;5026249;28;20404;-73
2023/02/22 12:35:56;;;;;;;26.15;18.50;;;13.30;99.90;;;;;;5012064;28;20446;-76
2023/02/22 12:38:45;;;;;;;26.13;18.52;;;13.30;99.90;;;;;;5011203;28;20045;-76
2023/02/22 12:41:27;;;;;;;28.05;19.50;;;13.40;99.90;;;;;;5013462;28;20373;-74
2023/02/22 12:44:01;;;;;;;32.28;21.20;;;13.30;99.90;;;;;;5011727;28;20405;-73
2023/02/22 12:46:35;;;;;;;26.88;18.00;;;13.10;99.90;;;;;;5008958;28;20052;-74
2023/02/22 12:49:16;;;;;;;25.95;18.52;;;12.90;99.90;;;;;;4993025;28;20397;-76
2023/02/22 12:52:15;;;;;;;25.95;19.23;;;12.80;99.90;;;;;;5013386;28;20073;-76
2023/02/22 12:54:44;;;;;;;30.50;19.52;;;12.80;99.90;;;;;;5025541;28;20044;-73
2023/02/22 12:57:35;;;;;;;28.90;18.83;;;12.60;99.90;;;;;;5012303;28;20052;-73
2023/02/22 13:00:14;;;;;;;20.85;14.57;;;12.50;99.90;;;;;;5008183;28;20041;-74